Time;durP1;ratioP1;P1;durP2;ratioP2;P2;SDS_P1;SDS_P2;PMS_P1;PMS_P2;Temp;Humidity;BMP_temperature;BMP_pressure;BME280_temperature;BME280_humidity;BME280_pressure;Samples;Min_cycle;Max_cycle;Signal;HPM_P1;HPM_P2
2021/04/05 00:01:35;;;;;;;23.63;11.37;;;5.90;79.60;;;;;;5114108;28;20040;-63
2021/04/05 00:04:01;;;;;;;28.37;11.00;;;5.90;79.60;;;;;;5096515;28;20077;-63
2021/04/05 00:06:27;;;;;;;24.77;10.77;;;5.90;79.70;;;;;;5114907;28;20407;-63
2021/04/05 00:08:52;;;;;;;22.80;10.30;;;5.90;79.50;;;;;;5098685;28;20506;-63
2021/04/05 00:11:19;;;;;;;26.40;11.03;;;5.90;79.50;;;;;;5113528;28;20114;-64
2021/04/05 00:13:45;;;;;;;21.23;11.03;;;5.90;79.60;;;;;;5114371;28;20031;-64
2021/04/05 00:16:18;;;;;;;26.27;11.73;;;5.90;79.70;;;;;;5114698;28;20032;-63
2021/04/05 00:18:45;;;;;;;22.23;11.13;;;6.00;79.70;;;;;;5095810;28;20487;-63
2021/04/05 00:21:20;;;;;;;25.30;11.43;;;5.90;79.60;;;;;;5114198;28;20039;-64
2021/04/05 00:23:47;;;;;;;25.27;11.23;;;5.90;79.70;;;;;;5079377;28;20040;-64
2021/04/05 00:26:13;;;;;;;24.27;11.33;;;6.00;79.70;;;;;;5096058;28;20044;-63
2021/04/05 00:28:39;;;;;;;24.83;11.03;;;6.00;79.50;;;;;;5096130;28;20035;-64
2021/04/05 00:31:05;;;;;;;24.00;10.17;;;6.00;79.40;;;;;;5113619;28;20032;-65
2021/04/05 00:33:31;;;;;;;22.87;11.30;;;6.00;79.40;;;;;;5114672;28;20125;-64
2021/04/05 00:35:57;;;;;;;27.43;11.83;;;6.00;79.40;;;;;;5116989;28;20032;-69
2021/04/05 00:38:24;;;;;;;23.00;12.10;;;6.00;79.60;;;;;;5118118;28;20092;-69
2021/04/05 00:40:55;;;;;;;28.00;12.70;;;6.00;79.70;;;;;;5117615;28;20039;-70
2021/04/05 00:43:21;;;;;;;25.80;12.30;;;6.10;79.90;;;;;;5116955;28;20040;-63
2021/04/05 00:45:47;;;;;;;24.23;12.13;;;6.10;79.80;;;;;;5116609;28;20067;-64
2021/04/05 00:48:14;;;;;;;25.60;12.90;;;6.10;79.70;;;;;;5097753;28;20099;-63
2021/04/05 00:50:59;;;;;;;25.77;12.37;;;6.20;79.70;;;;;;5116332;28;20032;-64
2021/04/05 00:53:47;;;;;;;32.13;13.27;;;6.30;79.60;;;;;;5115432;28;20035;-64
2021/04/05 00:56:18;;;;;;;24.53;13.17;;;6.30;79.40;;;;;;5094770;28;20040;-64
2021/04/05 00:58:44;;;;;;;25.30;13.63;;;6.40;79.20;;;;;;5095536;28;20036;-64
2021/04/05 01:01:13;;;;;;;27.70;13.20;;;6.40;79.10;;;;;;5113360;28;20036;-64
2021/04/05 01:03:42;;;;;;;25.63;14.17;;;6.40;79.00;;;;;;5113185;28;20035;-63
2021/04/05 01:06:20;;;;;;;25.63;13.20;;;6.40;78.80;;;;;;5113638;28;20054;-64
2021/04/05 01:08:46;;;;;;;26.37;13.67;;;6.40;78.70;;;;;;5113258;28;20123;-63
2021/04/05 01:11:15;;;;;;;30.37;14.33;;;6.40;78.70;;;;;;5112993;28;20165;-65
2021/04/05 01:13:41;;;;;;;26.83;13.70;;;6.50;78.60;;;;;;5112871;28;20035;-64
2021/04/05 01:16:07;;;;;;;28.07;14.67;;;6.50;78.50;;;;;;5094603;28;20118;-64
2021/04/05 01:18:33;;;;;;;28.10;14.93;;;6.50;78.40;;;;;;5113227;28;20046;-64
2021/04/05 01:21:01;;;;;;;26.87;14.90;;;6.50;78.40;;;;;;5112369;28;20039;-64
2021/04/05 01:23:26;;;;;;;28.70;14.47;;;6.50;78.40;;;;;;5112249;28;20070;-63
2021/04/05 01:25:52;;;;;;;31.40;14.63;;;6.50;78.40;;;;;;5112456;28;20150;-64
2021/04/05 01:28:18;;;;;;;26.23;15.20;;;6.40;78.40;;;;;;5113014;28;20036;-64
2021/04/05 01:30:50;;;;;;;28.80;15.60;;;6.50;78.40;;;;;;5094734;28;20024;-63
2021/04/05 01:33:18;;;;;;;31.20;15.67;;;6.50;78.40;;;;;;5112527;28;20396;-63
2021/04/05 01:35:52;;;;;;;26.63;14.87;;;6.50;78.40;;;;;;5113019;28;20050;-64
2021/04/05 01:38:21;;;;;;;28.33;14.87;;;6.50;78.40;;;;;;5094284;28;20038;-63
2021/04/05 01:40:59;;;;;;;30.20;15.73;;;6.60;78.30;;;;;;5112573;28;20038;-63
2021/04/05 01:43:25;;;;;;;27.57;15.57;;;6.60;78.20;;;;;;5094068;28;20043;-63
2021/04/05 01:45:54;;;;;;;27.13;15.03;;;6.60;78.20;;;;;;5094551;28;20035;-63
2021/04/05 01:48:22;;;;;;;28.40;15.67;;;6.60;78.20;;;;;;5111994;28;20036;-64
2021/04/05 01:50:48;;;;;;;30.23;15.60;;;6.60;78.20;;;;;;5112231;28;20115;-63
2021/04/05 01:53:18;;;;;;;29.00;15.33;;;6.60;78.20;;;;;;5112614;28;20035;-64
2021/04/05 01:55:45;;;;;;;27.90;15.17;;;6.60;78.20;;;;;;5093823;28;20046;-64
2021/04/05 01:58:10;;;;;;;26.47;15.70;;;6.60;78.20;;;;;;5112248;28;20047;-64
2021/04/05 02:00:39;;;;;;;30.07;16.03;;;6.60;78.20;;;;;;5093592;28;20051;-64
2021/04/05 02:03:09;;;;;;;31.50;16.47;;;6.60;78.20;;;;;;5094312;28;20036;-67
2021/04/05 02:05:37;;;;;;;29.52;16.52;;;6.70;78.30;;;;;;5093554;28;20521;-64
2021/04/05 02:08:06;;;;;;;31.00;15.00;;;6.70;78.20;;;;;;5112324;28;20126;-64
2021/04/05 02:10:32;;;;;;;29.37;15.10;;;6.70;78.20;;;;;;5112163;28;20039;-64
2021/04/05 02:12:58;;;;;;;29.13;15.07;;;6.70;78.20;;;;;;5093151;28;20068;-64
2021/04/05 02:15:25;;;;;;;30.63;15.47;;;6.70;78.30;;;;;;5093933;28;20036;-64
2021/04/05 02:17:51;;;;;;;31.07;15.90;;;6.70;78.40;;;;;;5111562;28;20321;-64
2021/04/05 02:20:17;;;;;;;25.67;15.00;;;6.70;78.40;;;;;;5111985;28;20038;-63
2021/04/05 02:22:46;;;;;;;28.63;15.37;;;6.70;78.30;;;;;;5111848;28;20042;-64
2021/04/05 02:25:18;;;;;;;28.73;14.67;;;6.70;78.40;;;;;;5093389;28;20040;-64
2021/04/05 02:27:46;;;;;;;30.87;15.47;;;6.70;78.50;;;;;;5076893;28;20043;-64
2021/04/05 02:30:22;;;;;;;26.50;14.90;;;6.70;78.50;;;;;;5111566;28;20046;-64
2021/04/05 02:33:06;;;;;;;26.83;13.80;;;6.70;78.60;;;;;;5093235;28;20506;-64
2021/04/05 02:35:33;;;;;;;29.93;14.20;;;6.70;78.50;;;;;;5111682;28;20035;-64
2021/04/05 02:38:03;;;;;;;31.37;15.07;;;6.70;78.60;;;;;;5111624;28;20035;-64
2021/04/05 02:40:30;;;;;;;27.80;14.40;;;6.70;78.60;;;;;;5111327;28;20040;-64
2021/04/05 02:42:57;;;;;;;29.87;14.67;;;6.70;78.70;;;;;;5111498;28;20028;-64
2021/04/05 02:45:25;;;;;;;24.80;13.77;;;6.70;78.80;;;;;;5093251;28;20032;-64
2021/04/05 02:47:58;;;;;;;26.53;14.80;;;6.70;78.80;;;;;;5093509;28;20036;-63
2021/04/05 02:50:27;;;;;;;31.80;14.70;;;6.70;79.00;;;;;;5093395;28;20562;-63
2021/04/05 02:52:57;;;;;;;28.43;13.53;;;6.70;79.50;;;;;;5111061;28;20039;-63
2021/04/05 02:55:23;;;;;;;28.77;14.50;;;6.80;79.10;;;;;;5111661;28;20040;-63
2021/04/05 02:57:50;;;;;;;30.60;14.77;;;6.70;79.10;;;;;;5110884;28;20780;-64
2021/04/05 03:00:18;;;;;;;26.87;13.63;;;6.70;79.20;;;;;;5111241;28;20036;-63
2021/04/05 03:02:49;;;;;;;29.97;13.83;;;6.70;79.30;;;;;;5110849;28;20520;-64
2021/04/05 03:05:21;;;;;;;31.20;13.57;;;6.70;79.50;;;;;;5111598;28;20514;-64
2021/04/05 03:07:50;;;;;;;32.03;14.33;;;6.70;79.60;;;;;;5110806;28;20047;-64
2021/04/05 03:10:17;;;;;;;33.20;13.47;;;6.70;79.70;;;;;;5093005;28;20032;-63
2021/04/05 03:12:44;;;;;;;31.40;14.43;;;6.70;79.80;;;;;;5092949;28;20036;-63
2021/04/05 03:15:13;;;;;;;30.77;15.03;;;6.70;79.90;;;;;;5075704;28;20450;-63
2021/04/05 03:17:40;;;;;;;30.30;15.73;;;6.70;79.90;;;;;;5111394;28;20503;-63
2021/04/05 03:20:14;;;;;;;29.03;13.80;;;6.60;80.00;;;;;;5092569;28;20035;-63
2021/04/05 03:22:41;;;;;;;29.90;15.20;;;6.60;80.30;;;;;;5111316;28;20399;-63
2021/04/05 03:25:16;;;;;;;33.70;14.77;;;6.50;80.60;;;;;;5110769;28;20086;-65
2021/04/05 03:27:43;;;;;;;29.37;14.70;;;6.50;81.00;;;;;;5111295;28;20104;-63
2021/04/05 03:30:12;;;;;;;35.60;15.20;;;6.50;81.30;;;;;;5111221;28;20588;-63
2021/04/05 03:32:41;;;;;;;35.03;16.10;;;6.40;81.70;;;;;;5093143;28;20035;-63
2021/04/05 03:35:11;;;;;;;39.67;17.20;;;6.30;82.00;;;;;;5111315;28;20039;-63
2021/04/05 03:37:38;;;;;;;41.70;17.33;;;6.30;82.60;;;;;;5111018;28;20499;-64
2021/04/05 03:40:07;;;;;;;34.30;15.60;;;6.20;83.00;;;;;;5092731;28;20506;-63
2021/04/05 03:42:42;;;;;;;35.50;16.30;;;6.20;83.50;;;;;;5110615;28;20032;-63
2021/04/05 03:45:15;;;;;;;38.47;16.87;;;6.10;84.10;;;;;;5111538;28;20035;-64
2021/04/05 03:48:00;;;;;;;33.43;16.87;;;6.20;84.40;;;;;;5113928;28;20050;-63
2021/04/05 03:51:06;;;;;;;35.33;16.97;;;6.20;84.50;;;;;;5114895;28;20044;-64
2021/04/05 03:53:47;;;;;;;41.43;17.10;;;6.10;84.80;;;;;;5114328;28;20046;-63
2021/04/05 03:56:16;;;;;;;32.33;16.30;;;6.10;85.20;;;;;;5114488;28;20111;-64
2021/04/05 03:58:52;;;;;;;33.67;16.03;;;6.10;85.60;;;;;;5114710;28;20432;-63
2021/04/05 04:01:27;;;;;;;34.27;17.10;;;6.10;85.80;;;;;;5114445;28;20036;-63
2021/04/05 04:04:06;;;;;;;34.53;16.47;;;6.10;86.00;;;;;;5114445;28;20046;-63
2021/04/05 04:06:44;;;;;;;31.43;16.40;;;6.10;86.30;;;;;;5114399;28;20089;-63
2021/04/05 04:09:12;;;;;;;31.23;15.90;;;6.10;86.60;;;;;;5081270;28;20028;-63
2021/04/05 04:11:39;;;;;;;33.50;16.77;;;6.10;86.80;;;;;;5114312;28;20027;-68
2021/04/05 04:14:08;;;;;;;33.30;17.20;;;6.10;87.20;;;;;;5114227;28;20023;-63
2021/04/05 04:16:34;;;;;;;18.73;9.43;;;6.10;87.50;;;;;;5114300;28;20456;-64
2021/04/05 04:19:06;;;;;;;7.30;3.13;;;6.10;87.60;;;;;;5113834;28;20036;-64
2021/04/05 04:21:32;;;;;;;9.03;3.10;;;6.10;86.70;;;;;;5114226;28;20036;-64
2021/04/05 04:23:57;;;;;;;9.77;3.27;;;6.00;86.60;;;;;;5113774;28;20034;-63
2021/04/05 04:26:24;;;;;;;7.17;2.70;;;5.90;86.80;;;;;;5096067;28;20063;-63
2021/04/05 04:28:50;;;;;;;4.80;1.90;;;5.70;86.90;;;;;;5114342;28;20032;-65
2021/04/05 04:31:20;;;;;;;5.33;1.60;;;5.60;87.30;;;;;;5113531;28;20441;-63
2021/04/05 04:33:48;;;;;;;3.97;1.40;;;5.50;87.30;;;;;;5114362;28;20119;-66
2021/04/05 04:36:20;;;;;;;4.43;1.10;;;5.50;87.90;;;;;;5113509;28;20032;-64
2021/04/05 04:38:46;;;;;;;3.10;0.90;;;5.40;88.20;;;;;;5114040;28;20047;-64
2021/04/05 04:41:11;;;;;;;3.50;1.07;;;5.30;88.00;;;;;;5095111;28;20479;-63
2021/04/05 04:43:37;;;;;;;1.90;0.70;;;5.30;88.70;;;;;;5113875;28;20056;-63
2021/04/05 04:46:03;;;;;;;4.27;1.00;;;5.30;88.60;;;;;;5113715;28;20047;-63
2021/04/05 04:48:29;;;;;;;4.07;0.90;;;5.20;88.70;;;;;;5113112;28;20074;-63
2021/04/05 04:50:54;;;;;;;4.70;0.90;;;5.20;88.80;;;;;;5113597;28;20133;-63
2021/04/05 04:53:20;;;;;;;6.77;1.27;;;5.20;88.90;;;;;;5113943;28;20036;-63
2021/04/05 04:55:46;;;;;;;4.00;1.10;;;5.10;88.90;;;;;;5113199;28;20373;-63
2021/04/05 04:58:14;;;;;;;5.27;1.10;;;5.10;89.20;;;;;;5113675;28;20027;-63
2021/04/05 05:00:39;;;;;;;6.33;1.57;;;5.10;89.20;;;;;;5113049;28;20499;-64
2021/04/05 05:03:06;;;;;;;5.07;1.47;;;5.10;89.70;;;;;;5113748;28;20031;-63
2021/04/05 05:05:33;;;;;;;6.53;1.40;;;5.10;89.50;;;;;;5113656;28;20480;-63
2021/04/05 05:08:00;;;;;;;6.67;1.60;;;5.10;89.50;;;;;;5116743;28;20040;-65
2021/04/05 05:10:26;;;;;;;5.73;1.30;;;5.10;89.90;;;;;;5116997;28;20035;-65
2021/04/05 05:12:52;;;;;;;5.30;1.60;;;5.20;90.00;;;;;;5116770;28;20544;-73
2021/04/05 05:15:19;;;;;;;7.40;1.90;;;5.20;90.00;;;;;;5116803;28;20039;-65
2021/04/05 05:17:46;;;;;;;6.83;2.17;;;5.20;90.00;;;;;;5116967;28;20093;-71
2021/04/05 05:20:14;;;;;;;8.97;2.23;;;5.30;89.80;;;;;;5116306;28;20042;-68
2021/04/05 05:22:43;;;;;;;8.40;2.37;;;5.20;89.80;;;;;;5115938;28;20110;-67
2021/04/05 05:25:10;;;;;;;10.13;2.50;;;5.30;90.00;;;;;;5114317;28;20114;-64
2021/04/05 05:27:40;;;;;;;9.37;2.10;;;5.30;90.00;;;;;;5113152;28;20244;-65
2021/04/05 05:30:07;;;;;;;11.43;2.80;;;5.30;90.00;;;;;;5112557;28;20381;-64
2021/04/05 05:32:35;;;;;;;9.13;2.37;;;5.30;90.10;;;;;;5113113;28;20114;-64
2021/04/05 05:35:01;;;;;;;8.47;2.10;;;5.30;90.10;;;;;;5112927;28;20032;-64
2021/04/05 05:37:27;;;;;;;8.57;1.80;;;5.30;90.10;;;;;;5112214;28;20040;-64
2021/04/05 05:39:53;;;;;;;7.53;1.70;;;5.40;90.00;;;;;;5112745;28;20028;-64
2021/04/05 05:42:56;;;;;;;7.37;1.50;;;5.30;89.80;;;;;;5112174;28;20407;-64
2021/04/05 05:45:28;;;;;;;9.30;1.70;;;5.30;89.90;;;;;;5070252;28;20032;-61
2021/04/05 05:48:14;;;;;;;9.77;1.70;;;5.30;89.70;;;;;;5112573;28;20118;-64
2021/04/05 05:50:55;;;;;;;11.67;1.83;;;5.20;89.30;;;;;;5111981;28;20040;-64
2021/04/05 05:53:39;;;;;;;;;;;5.10;88.80;;;;;;5112989;28;20495;-63
2021/04/05 05:56:20;;;;;;;10.30;1.63;;;5.00;89.00;;;;;;5112309;28;19912;-64
2021/04/05 05:58:51;;;;;;;8.70;2.08;;;5.00;89.40;;;;;;5093837;28;20118;-63
2021/04/05 06:01:22;;;;;;;;;;;4.90;89.40;;;;;;5094256;28;20039;-64
2021/04/05 06:03:48;;;;;;;8.67;1.53;;;4.90;89.50;;;;;;5112530;28;19911;-63
2021/04/05 06:06:20;;;;;;;7.67;1.67;;;4.90;89.30;;;;;;5093354;28;20034;-64
2021/04/05 06:08:46;;;;;;;12.67;1.70;;;4.90;89.60;;;;;;5111860;28;20042;-63
2021/04/05 06:11:49;;;;;;;9.23;1.87;;;4.90;89.70;;;;;;5111402;28;20039;-64
2021/04/05 06:14:40;;;;;;;11.30;1.60;;;4.90;89.50;;;;;;5093606;28;20039;-64
2021/04/05 06:17:29;;;;;;;9.70;1.80;;;4.90;89.30;;;;;;5111624;28;20061;-63
2021/04/05 06:20:23;;;;;;;7.73;1.30;;;4.90;89.60;;;;;;5112000;28;20084;-64
2021/04/05 06:23:03;;;;;;;9.70;1.50;;;4.90;89.00;;;;;;5111285;28;20039;-65
2021/04/05 06:26:06;;;;;;;6.22;1.25;;;4.90;89.10;;;;;;5111897;28;20051;-65
2021/04/05 06:28:53;;;;;;;9.47;1.47;;;5.00;89.10;;;;;;5093306;28;20046;-64
2021/04/05 06:31:41;;;;;;;8.10;1.20;;;5.00;88.80;;;;;;5111250;28;20059;-64
2021/04/05 06:34:14;;;;;;;6.67;1.20;;;5.00;88.80;;;;;;5111891;28;20069;-64
2021/04/05 06:36:56;;;;;;;7.37;1.30;;;5.10;88.40;;;;;;5111148;28;20132;-64
2021/04/05 06:39:28;;;;;;;7.47;1.37;;;5.10;88.20;;;;;;5111763;28;20071;-63
2021/04/05 06:42:34;;;;;;;7.80;1.37;;;5.00;87.40;;;;;;5111201;28;20031;-65
2021/04/05 06:45:37;;;;;;;7.20;1.20;;;4.90;87.20;;;;;;5111417;28;20040;-64
2021/04/05 06:48:33;;;;;;;8.53;1.10;;;4.80;86.80;;;;;;5111075;28;20054;-65
2021/04/05 06:51:21;;;;;;;7.57;1.47;;;4.70;86.90;;;;;;5110822;28;20035;-65
2021/04/05 06:54:28;;;;;;;7.37;1.27;;;4.60;87.00;;;;;;5092933;28;20043;-64
2021/04/05 06:57:15;;;;;;;11.00;1.33;;;4.60;86.80;;;;;;5111570;28;20501;-65
2021/04/05 06:59:57;;;;;;;7.17;1.03;;;4.70;87.20;;;;;;5111286;28;20122;-65
2021/04/05 07:02:47;;;;;;;10.30;1.17;;;4.70;87.10;;;;;;5110973;28;20055;-65
2021/04/05 07:05:34;;;;;;;10.48;1.23;;;4.80;86.80;;;;;;5111517;28;20068;-65
2021/04/05 07:08:05;;;;;;;5.27;0.90;;;4.80;87.00;;;;;;5111103;28;20092;-65
2021/04/05 07:10:44;;;;;;;8.83;1.40;;;4.90;86.70;;;;;;5111441;28;20036;-65
2021/04/05 07:13:27;;;;;;;9.90;1.30;;;5.10;88.00;;;;;;5111182;28;20035;-65
2021/04/05 07:16:02;;;;;;;6.40;1.13;;;5.30;87.30;;;;;;5113692;28;20127;-65
2021/04/05 07:18:50;;;;;;;8.07;1.20;;;5.40;86.80;;;;;;5114024;28;20056;-64
2021/04/05 07:21:30;;;;;;;6.47;1.40;;;5.60;87.10;;;;;;5096468;28;20036;-64
2021/04/05 07:24:06;;;;;;;8.10;1.50;;;5.80;85.80;;;;;;5117350;28;20027;-65
2021/04/05 07:27:00;;;;;;;6.97;1.50;;;5.50;83.90;;;;;;5115524;28;20043;-65
2021/04/05 07:29:42;;;;;;;7.93;1.10;;;5.40;83.90;;;;;;5114980;28;20062;-70
2021/04/05 07:32:38;;;;;;;10.93;1.40;;;5.20;84.40;;;;;;5097047;28;20384;-65
2021/04/05 07:35:47;;;;;;;9.00;1.50;;;5.20;84.40;;;;;;5114843;28;20031;-65
2021/04/05 07:38:35;;;;;;;8.33;1.30;;;5.20;85.20;;;;;;5031673;28;20068;-66
2021/04/05 07:41:21;;;;;;;7.97;1.30;;;6.90;92.70;;;;;;5031677;28;20555;-65
2021/04/05 07:44:20;;;;;;;8.73;1.40;;;8.90;90.90;;;;;;5097835;28;20118;-64
2021/04/05 07:46:57;;;;;;;9.17;1.60;;;9.10;83.20;;;;;;5075572;28;20066;-64
2021/04/05 07:49:36;;;;;;;8.17;1.33;;;8.40;76.80;;;;;;5114864;28;20035;-64
2021/04/05 07:52:14;;;;;;;8.20;1.20;;;7.50;76.00;;;;;;5113212;28;20035;-64
2021/04/05 07:54:41;;;;;;;5.57;0.70;;;6.70;77.20;;;;;;5095597;28;20511;-63
2021/04/05 07:57:19;;;;;;;6.43;1.17;;;6.50;80.00;;;;;;5095011;28;20040;-64
2021/04/05 08:00:03;;;;;;;6.57;1.10;;;6.80;83.00;;;;;;5113383;28;20028;-64
2021/04/05 08:03:02;;;;;;;4.03;1.00;;;8.20;88.20;;;;;;5113336;28;20024;-64
2021/04/05 08:05:55;;;;;;;5.28;1.00;;;10.30;87.50;;;;;;5050870;28;20430;-64
2021/04/05 08:08:36;;;;;;;5.15;1.10;;;12.20;81.30;;;;;;5113331;28;20040;-64
2021/04/05 08:11:29;;;;;;;4.35;0.90;;;14.50;80.70;;;;;;5113669;28;20403;-64
2021/04/05 08:14:29;;;;;;;3.53;1.05;;;15.00;71.00;;;;;;5095494;28;20032;-65
2021/04/05 08:16:57;;;;;;;2.33;0.50;;;13.30;61.40;;;;;;5113765;28;20051;-64
2021/04/05 08:19:43;;;;;;;1.80;0.60;;;10.90;60.10;;;;;;5114484;28;20090;-64
2021/04/05 08:22:42;;;;;;;1.70;0.47;;;8.90;63.20;;;;;;5113839;28;20115;-63
2021/04/05 08:25:41;;;;;;;2.53;1.00;;;7.50;66.80;;;;;;5113801;28;20063;-63
2021/04/05 08:28:16;;;;;;;3.23;0.80;;;6.70;70.10;;;;;;5113704;28;20039;-63
2021/04/05 08:31:04;;;;;;;1.00;0.40;;;6.60;72.80;;;;;;5113634;28;20024;-63
2021/04/05 08:34:06;;;;;;;1.93;0.40;;;6.60;72.50;;;;;;5113687;28;20032;-63
2021/04/05 08:36:50;;;;;;;2.77;0.57;;;6.50;71.90;;;;;;5113725;28;20502;-63
2021/04/05 08:39:37;;;;;;;2.17;0.50;;;6.40;72.90;;;;;;5113259;28;20483;-63
2021/04/05 08:42:17;;;;;;;1.53;0.40;;;6.80;75.70;;;;;;5113894;28;20036;-63
2021/04/05 08:44:58;;;;;;;2.28;0.52;;;7.40;75.10;;;;;;5113541;28;20051;-63
2021/04/05 08:47:28;;;;;;;1.33;0.27;;;7.60;72.50;;;;;;5113629;28;20039;-64
2021/04/05 08:50:02;;;;;;;3.83;0.63;;;7.50;70.90;;;;;;5113695;28;20047;-64
2021/04/05 08:52:34;;;;;;;3.33;0.77;;;7.20;69.10;;;;;;5113660;28;20407;-64
2021/04/05 08:55:02;;;;;;;3.03;0.70;;;6.80;69.80;;;;;;5113735;28;20027;-64
2021/04/05 08:57:34;;;;;;;5.63;1.10;;;6.50;69.00;;;;;;5095202;28;20039;-64
2021/04/05 09:00:11;;;;;;;3.57;0.83;;;6.10;69.30;;;;;;5112970;28;20070;-64
2021/04/05 09:02:50;;;;;;;6.43;1.20;;;6.00;71.10;;;;;;5113256;28;20048;-64
2021/04/05 09:05:22;;;;;;;5.43;1.00;;;6.70;75.10;;;;;;5112374;28;20376;-65
2021/04/05 09:07:54;;;;;;;5.60;1.27;;;8.20;76.50;;;;;;5112132;28;20039;-65
2021/04/05 09:10:34;;;;;;;6.30;1.10;;;8.90;71.30;;;;;;5112408;28;20509;-64
2021/04/05 09:13:07;;;;;;;5.73;1.37;;;8.90;68.30;;;;;;5113171;28;20035;-65
2021/04/05 09:16:26;;;;;;;6.67;1.40;;;9.10;68.90;;;;;;5112954;28;20123;-66
2021/04/05 09:19:25;;;;;;;6.77;1.37;;;9.70;69.50;;;;;;5029917;28;20053;-65
2021/04/05 09:22:41;;;;;;;5.72;1.15;;;10.20;67.10;;;;;;5029560;28;20033;-65
2021/04/05 09:25:28;;;;;;;6.05;1.25;;;10.30;65.30;;;;;;5100021;28;20044;-64
2021/04/05 09:27:58;;;;;;;7.78;1.40;;;11.30;66.90;;;;;;5112064;28;20043;-64
2021/04/05 09:30:48;;;;;;;5.20;1.30;;;14.10;69.50;;;;;;5112713;28;20507;-66
2021/04/05 09:33:51;;;;;;;9.00;1.40;;;17.00;64.50;;;;;;5112434;28;20042;-64
2021/04/05 09:36:54;;;;;;;7.07;1.55;;;19.90;59.30;;;;;;5112063;28;20064;-65
2021/04/05 09:39:25;;;;;;;5.68;1.27;;;21.60;53.70;;;;;;5111925;28;20031;-65
2021/04/05 09:42:11;;;;;;;6.05;1.25;;;22.30;48.60;;;;;;5099854;28;20044;-64
2021/04/05 09:44:57;;;;;;;9.32;1.40;;;23.10;46.60;;;;;;5094634;28;20499;-64
2021/04/05 09:47:35;;;;;;;9.57;1.73;;;23.00;42.90;;;;;;5081859;28;20499;-64
2021/04/05 09:50:32;;;;;;;7.38;1.42;;;22.70;41.50;;;;;;5100552;28;20035;-64
2021/04/05 09:53:14;;;;;;;7.07;1.60;;;22.70;39.40;;;;;;5107780;28;20487;-64
2021/04/05 09:55:48;;;;;;;8.23;1.80;;;23.00;38.80;;;;;;5073140;28;20028;-64
2021/04/05 09:58:45;;;;;;;8.75;1.73;;;23.50;36.10;;;;;;5073026;28;20081;-64
2021/04/05 10:01:24;;;;;;;7.80;1.77;;;23.80;34.20;;;;;;5075006;28;20025;-64
2021/04/05 10:03:55;;;;;;;8.05;1.90;;;22.60;31.90;;;;;;5091561;28;20036;-64
2021/04/05 10:06:24;;;;;;;6.88;1.63;;;20.50;30.10;;;;;;5072694;28;20066;-62
2021/04/05 10:08:51;;;;;;;8.32;1.55;;;17.60;30.70;;;;;;5073250;28;20066;-63
2021/04/05 10:11:18;;;;;;;6.35;1.30;;;15.60;32.30;;;;;;5071033;28;20543;-64
2021/04/05 10:13:54;;;;;;;7.47;1.50;;;14.80;35.10;;;;;;5091550;28;20484;-62
2021/04/05 10:16:22;;;;;;;7.40;1.48;;;14.50;34.40;;;;;;5090488;28;20052;-63
2021/04/05 10:18:51;;;;;;;7.53;1.88;;;16.00;37.80;;;;;;5073370;28;20054;-66
2021/04/05 10:21:18;;;;;;;11.53;1.80;;;17.80;35.40;;;;;;5090620;28;20067;-65
2021/04/05 10:23:45;;;;;;;9.70;2.00;;;17.50;31.20;;;;;;5073176;28;20028;-65
2021/04/05 10:26:13;;;;;;;8.00;1.67;;;16.50;31.30;;;;;;5072929;28;20043;-63
2021/04/05 10:28:41;;;;;;;8.68;2.10;;;17.20;33.30;;;;;;5090161;28;20052;-65
2021/04/05 10:31:12;;;;;;;7.00;1.90;;;19.40;34.20;;;;;;5090794;28;20071;-67
2021/04/05 10:33:43;;;;;;;11.20;1.77;;;22.00;33.30;;;;;;5070836;28;20032;-67
2021/04/05 10:36:10;;;;;;;;;;;23.30;29.20;;;;;;5090007;28;20397;-67
2021/04/05 10:38:37;;;;;;;10.57;1.70;;;23.80;28.70;;;;;;5089354;28;19920;-66
2021/04/05 10:41:06;;;;;;;8.77;2.00;;;24.80;28.50;;;;;;5090670;28;20416;-64
2021/04/05 10:43:40;;;;;;;9.43;1.92;;;25.80;27.50;;;;;;5090879;28;20040;-67
2021/04/05 10:46:16;;;;;;;6.38;1.58;;;26.10;26.80;;;;;;5090755;28;20040;-66
2021/04/05 10:48:46;;;;;;;10.32;2.50;;;25.70;25.10;;;;;;5090966;28;20379;-65
2021/04/05 10:51:37;;;;;;;11.70;1.60;;;23.30;23.60;;;;;;5072964;28;20036;-65
2021/04/05 10:54:24;;;;;;;8.23;1.80;;;20.60;25.50;;;;;;5090467;28;20378;-66
2021/04/05 10:56:54;;;;;;;6.78;1.40;;;20.10;26.90;;;;;;5090737;28;20373;-67
2021/04/05 10:59:48;;;;;;;8.35;1.60;;;20.20;26.80;;;;;;5090560;28;20036;-66
2021/04/05 11:02:22;;;;;;;7.65;1.50;;;20.00;26.20;;;;;;5090129;28;20111;-66
2021/04/05 11:04:57;;;;;;;8.25;1.90;;;19.50;26.20;;;;;;5072926;28;20425;-66
2021/04/05 11:07:26;;;;;;;8.50;1.83;;;19.00;25.80;;;;;;5090333;28;20411;-66
2021/04/05 11:09:56;;;;;;;8.68;1.70;;;18.40;25.30;;;;;;5090740;28;20115;-67
2021/04/05 11:12:23;;;;;;;8.57;2.08;;;17.20;25.30;;;;;;5090330;28;20044;-63
2021/04/05 11:14:50;;;;;;;7.40;1.50;;;16.60;26.40;;;;;;5090628;28;20024;-64
2021/04/05 11:17:20;;;;;;;7.78;1.30;;;15.70;26.50;;;;;;5072695;28;20101;-63
2021/04/05 11:19:53;;;;;;;7.05;1.30;;;14.90;26.80;;;;;;5072201;28;20036;-64
2021/04/05 11:22:27;;;;;;;9.30;1.40;;;15.50;27.90;;;;;;5090588;28;20040;-64
2021/04/05 11:25:23;;;;;;;6.30;1.20;;;16.60;28.40;;;;;;5077306;28;20042;-65
2021/04/05 11:27:55;;;;;;;4.72;1.10;;;17.50;27.60;;;;;;5069988;28;20035;-64
2021/04/05 11:30:27;;;;;;;5.00;1.25;;;18.00;27.50;;;;;;5087160;28;20040;-66
2021/04/05 11:32:53;;;;;;;6.07;1.48;;;18.40;26.80;;;;;;5110339;28;20043;-66
2021/04/05 11:35:21;;;;;;;6.43;1.48;;;18.10;25.90;;;;;;5092640;28;20031;-67
2021/04/05 11:37:51;;;;;;;6.95;1.30;;;16.90;25.40;;;;;;5110673;28;20032;-66
2021/04/05 11:40:19;;;;;;;9.75;1.52;;;15.60;26.40;;;;;;5092049;28;20111;-64
2021/04/05 11:42:49;;;;;;;6.22;1.25;;;15.60;27.70;;;;;;5110307;28;20063;-64
2021/04/05 11:45:40;;;;;;;5.72;1.15;;;16.00;27.90;;;;;;5110195;28;20126;-66
2021/04/05 11:48:20;;;;;;;6.93;1.48;;;16.80;28.10;;;;;;5109637;28;20483;-65
2021/04/05 11:50:46;;;;;;;7.15;1.35;;;16.40;26.60;;;;;;5091895;28;20462;-65
2021/04/05 11:53:28;;;;;;;8.13;1.42;;;16.20;29.00;;;;;;5109100;28;20046;-66
2021/04/05 11:56:15;;;;;;;5.57;1.42;;;17.50;30.40;;;;;;5099179;28;20028;-66
2021/04/05 11:59:18;;;;;;;7.90;1.30;;;18.60;29.20;;;;;;5102613;28;20047;-65
2021/04/05 12:01:53;;;;;;;5.47;1.20;;;18.90;28.10;;;;;;5097606;28;20096;-65
2021/04/05 12:04:25;;;;;;;6.82;1.30;;;18.70;27.30;;;;;;5095742;28;20047;-63
2021/04/05 12:06:59;;;;;;;5.75;1.58;;;18.60;27.70;;;;;;5101342;28;20372;-63
2021/04/05 12:09:44;;;;;;;6.50;1.33;;;18.50;27.20;;;;;;5105994;28;20539;-63
2021/04/05 12:12:21;;;;;;;14.38;1.70;;;16.80;25.80;;;;;;5101762;28;20032;-62
2021/04/05 12:14:55;;;;;;;8.23;1.40;;;14.50;26.70;;;;;;5101838;28;20419;-63
2021/04/05 12:17:22;;;;;;;8.00;1.20;;;12.50;28.70;;;;;;5106286;28;20406;-62
2021/04/05 12:19:51;;;;;;;8.38;1.55;;;11.00;30.90;;;;;;5094301;28;20032;-62
2021/04/05 12:22:23;;;;;;;5.35;1.15;;;10.60;34.00;;;;;;5099328;28;20040;-63
2021/04/05 12:24:50;;;;;;;3.92;0.98;;;10.60;34.60;;;;;;5110442;28;20065;-62
2021/04/05 12:27:17;;;;;;;4.80;1.27;;;10.70;35.20;;;;;;5097843;28;20050;-62
2021/04/05 12:29:44;;;;;;;4.70;1.02;;;10.90;35.60;;;;;;5086888;28;20040;-62
2021/04/05 12:32:19;;;;;;;6.03;1.20;;;11.30;35.70;;;;;;5086983;28;20043;-65
2021/04/05 12:34:54;;;;;;;6.18;1.30;;;11.90;36.50;;;;;;5095188;28;20035;-66
2021/04/05 12:37:23;;;;;;;5.43;1.25;;;12.90;36.80;;;;;;5111758;28;20039;-63
2021/04/05 12:39:54;;;;;;;4.75;1.00;;;13.80;36.10;;;;;;5103617;28;20092;-63
2021/04/05 12:42:21;;;;;;;7.13;1.17;;;13.50;33.80;;;;;;5076760;28;20403;-66
2021/04/05 12:44:59;;;;;;;3.08;0.77;;;12.00;33.30;;;;;;5105219;28;20028;-66
2021/04/05 12:47:44;;;;;;;7.50;1.10;;;10.40;37.00;;;;;;5095873;28;20391;-66
2021/04/05 12:50:14;;;;;;;2.60;0.90;;;9.90;42.10;;;;;;5095185;28;20047;-65
2021/04/05 12:52:42;;;;;;;6.00;1.10;;;9.90;43.30;;;;;;5095324;28;20073;-65
2021/04/05 12:55:10;;;;;;;7.03;1.08;;;9.90;44.20;;;;;;5094643;28;20081;-65
2021/04/05 12:57:37;;;;;;;5.50;1.08;;;9.50;43.20;;;;;;5113528;28;20028;-64
2021/04/05 13:00:21;;;;;;;9.27;1.50;;;8.80;43.20;;;;;;5093965;28;20608;-65
2021/04/05 13:03:06;;;;;;;4.93;1.20;;;8.00;45.00;;;;;;5112254;28;20403;-65
2021/04/05 13:05:54;;;;;;;9.50;2.03;;;7.50;47.30;;;;;;5112386;28;20031;-65
2021/04/05 13:08:29;;;;;;;6.20;1.30;;;7.50;50.00;;;;;;5112488;28;20034;-64
2021/04/05 13:11:17;;;;;;;7.00;1.43;;;7.80;52.00;;;;;;5112938;28;20027;-65
2021/04/05 13:13:57;;;;;;;8.47;1.50;;;7.90;51.70;;;;;;5113098;28;20484;-65
2021/04/05 13:16:50;;;;;;;8.30;1.27;;;7.60;50.70;;;;;;5112098;28;20114;-65
2021/04/05 13:19:18;;;;;;;4.00;0.73;;;7.10;51.10;;;;;;5108385;28;20085;-65
2021/04/05 13:21:47;;;;;;;4.57;0.90;;;6.30;52.10;;;;;;5104542;28;20051;-62
2021/04/05 13:24:22;;;;;;;5.67;0.90;;;5.90;55.60;;;;;;5113020;28;20038;-63
2021/04/05 13:26:48;;;;;;;4.23;0.90;;;6.20;58.80;;;;;;5112319;28;20059;-63
2021/04/05 13:29:19;;;;;;;4.37;0.80;;;6.40;58.20;;;;;;5112714;28;20492;-63